createdAt,value
2023-03-25T00:01:16.599Z,66.61
2023-03-25T00:03:46.767Z,69.05
2023-03-25T00:06:14.314Z,68.47
2023-03-25T00:08:41.723Z,66.73
2023-03-25T00:11:09.003Z,66.09
2023-03-25T00:13:36.595Z,66.86
2023-03-25T00:16:04.793Z,67.48
2023-03-25T00:18:35.641Z,65.34
2023-03-25T00:21:04.494Z,65.06
2023-03-25T00:23:32.408Z,70.29
2023-03-25T00:26:03.394Z,71.29
2023-03-25T00:28:32.789Z,68.68
2023-03-25T00:31:02.152Z,78.42
2023-03-25T00:33:29.517Z,77.22
2023-03-25T00:35:59.620Z,74.56
2023-03-25T00:38:34.455Z,74.88
2023-03-25T00:41:26.126Z,77.04
2023-03-25T00:43:55.815Z,77.13
2023-03-25T00:46:28.018Z,78.23
2023-03-25T00:48:55.481Z,77.54
2023-03-25T00:51:23.589Z,78.03
2023-03-25T00:54:01.520Z,76.76
2023-03-25T00:56:29.717Z,76.29
2023-03-25T00:58:57.543Z,77.28
2023-03-25T01:01:29.824Z,84.29
2023-03-25T01:03:58.628Z,90.83
2023-03-25T01:06:29.627Z,96.10
2023-03-25T01:08:58.007Z,100.00
2023-03-25T01:11:31.348Z,100.00
2023-03-25T01:14:00.045Z,100.00
2023-03-25T01:16:28.280Z,100.00
2023-03-25T01:18:56.289Z,100.00
2023-03-25T01:21:23.986Z,100.00
2023-03-25T01:23:50.985Z,100.00
2023-03-25T01:26:18.058Z,100.00
2023-03-25T01:28:45.900Z,100.00
2023-03-25T01:31:15.238Z,100.00
2023-03-25T01:33:42.609Z,100.00
2023-03-25T01:36:13.176Z,100.00
2023-03-25T01:38:41.904Z,100.00
2023-03-25T01:41:10.296Z,100.00
2023-03-25T01:43:37.491Z,100.00
2023-03-25T01:46:04.690Z,100.00
2023-03-25T01:48:40.790Z,100.00
2023-03-25T01:51:11.656Z,100.00
2023-03-25T01:53:40.588Z,100.00
2023-03-25T01:56:10.688Z,100.00
2023-03-25T01:58:38.039Z,100.00
2023-03-25T02:01:05.543Z,100.00
2023-03-25T02:03:37.468Z,100.00
2023-03-25T02:06:14.730Z,100.00
2023-03-25T02:08:42.226Z,100.00
2023-03-25T02:11:11.250Z,100.00
2023-03-25T02:13:41.485Z,100.00
2023-03-25T02:16:45.817Z,100.00
2023-03-25T02:19:18.466Z,100.00
2023-03-25T02:22:25.933Z,100.00
2023-03-25T02:25:14.200Z,100.00
2023-03-25T02:28:02.269Z,100.00
2023-03-25T02:30:57.223Z,100.00
2023-03-25T02:33:49.084Z,100.00
2023-03-25T02:36:43.111Z,100.00
2023-03-25T02:39:28.306Z,100.00
2023-03-25T02:42:06.355Z,100.00
2023-03-25T02:44:50.780Z,100.00
2023-03-25T02:47:20.487Z,100.00
2023-03-25T02:49:54.919Z,99.80
2023-03-25T02:52:29.445Z,100.00
2023-03-25T02:55:04.499Z,100.00
2023-03-25T02:57:35.397Z,100.00
2023-03-25T03:00:11.092Z,100.00
2023-03-25T03:02:39.370Z,100.00
2023-03-25T03:05:23.363Z,100.00
2023-03-25T03:08:10.438Z,100.00
2023-03-25T03:11:07.593Z,100.00
2023-03-25T03:13:49.431Z,100.00
2023-03-25T03:16:19.871Z,100.00
2023-03-25T03:18:54.016Z,100.00
2023-03-25T03:21:30.612Z,98.70
2023-03-25T03:24:12.653Z,97.56
2023-03-25T03:26:39.573Z,95.35
2023-03-25T03:29:14.418Z,95.29
2023-03-25T03:31:48.451Z,98.50
2023-03-25T03:34:48.691Z,100.00
2023-03-25T03:37:28.692Z,100.00
2023-03-25T03:39:58.116Z,100.00
2023-03-25T03:42:49.169Z,100.00
2023-03-25T03:45:39.615Z,100.00
2023-03-25T03:48:13.128Z,100.00
2023-03-25T03:50:48.944Z,100.00
2023-03-25T03:53:23.826Z,100.00
2023-03-25T03:55:56.100Z,100.00
2023-03-25T03:58:30.161Z,100.00
2023-03-25T04:01:16.957Z,100.00
2023-03-25T04:03:52.439Z,100.00
2023-03-25T04:06:35.655Z,100.00
2023-03-25T04:09:18.747Z,100.00
2023-03-25T04:11:56.866Z,100.00
2023-03-25T04:14:24.033Z,100.00
2023-03-25T04:16:53.320Z,100.00
2023-03-25T04:19:20.330Z,100.00
2023-03-25T04:21:48.215Z,100.00
2023-03-25T04:24:17.045Z,100.00
2023-03-25T04:26:44.343Z,100.00
2023-03-25T04:29:11.312Z,100.00
2023-03-25T04:31:46.638Z,100.00
2023-03-25T04:34:15.092Z,100.00
2023-03-25T04:36:43.316Z,100.00
2023-03-25T04:39:12.922Z,100.00
2023-03-25T04:41:40.166Z,100.00
2023-03-25T04:44:08.143Z,100.00
2023-03-25T04:46:36.727Z,100.00
2023-03-25T04:49:06.499Z,100.00
2023-03-25T04:51:33.717Z,100.00
2023-03-25T04:54:01.154Z,100.00
2023-03-25T04:56:28.208Z,100.00
2023-03-25T04:58:55.357Z,100.00
2023-03-25T05:01:32.778Z,100.00
2023-03-25T05:04:07.744Z,100.00
2023-03-25T05:06:38.637Z,100.00
2023-03-25T05:09:07.259Z,100.00
2023-03-25T05:11:37.286Z,100.00
2023-03-25T05:14:04.308Z,100.00
2023-03-25T05:16:31.325Z,100.00
2023-03-25T05:18:58.695Z,100.00
2023-03-25T05:21:25.884Z,100.00
2023-03-25T05:23:52.876Z,100.00
2023-03-25T05:26:21.007Z,100.00
2023-03-25T05:28:51.681Z,100.00
2023-03-25T05:31:19.237Z,100.00
2023-03-25T05:33:46.501Z,100.00
2023-03-25T05:36:18.853Z,100.00
2023-03-25T05:38:45.795Z,100.00
2023-03-25T05:41:17.261Z,100.00
2023-03-25T05:43:53.378Z,100.00
2023-03-25T05:46:20.676Z,100.00
2023-03-25T05:48:47.666Z,100.00
2023-03-25T05:51:22.090Z,100.00
2023-03-25T05:53:53.677Z,100.00
2023-03-25T05:56:23.357Z,100.00
2023-03-25T05:58:51.320Z,100.00
2023-03-25T06:01:31.755Z,100.00
2023-03-25T06:04:05.586Z,100.00
2023-03-25T06:06:34.492Z,100.00
2023-03-25T06:09:02.544Z,100.00
2023-03-25T06:11:30.078Z,100.00
2023-03-25T06:13:57.532Z,100.00
2023-03-25T06:16:30.173Z,100.00
2023-03-25T06:19:00.402Z,100.00
2023-03-25T06:21:29.556Z,100.00
2023-03-25T06:23:58.948Z,100.00
2023-03-25T06:26:26.727Z,100.00
2023-03-25T06:28:54.925Z,100.00
2023-03-25T06:31:33.934Z,100.00
2023-03-25T06:34:01.760Z,100.00
2023-03-25T06:36:28.799Z,100.00
2023-03-25T06:38:55.858Z,100.00
2023-03-25T06:41:26.066Z,100.00
2023-03-25T06:43:53.539Z,100.00
2023-03-25T06:46:20.516Z,100.00
2023-03-25T06:48:47.634Z,100.00
2023-03-25T06:51:14.693Z,100.00
2023-03-25T06:53:41.690Z,99.48
2023-03-25T06:56:09.099Z,97.56
2023-03-25T06:58:36.126Z,98.27
2023-03-25T07:01:07.755Z,96.76
2023-03-25T07:03:36.938Z,96.81
2023-03-25T07:06:06.020Z,92.62
2023-03-25T07:08:33.376Z,92.53
2023-03-25T07:11:08.286Z,93.46
2023-03-25T07:13:35.688Z,94.66
2023-03-25T07:16:03.376Z,91.77
2023-03-25T07:18:30.460Z,92.16
2023-03-25T07:20:57.604Z,92.55
2023-03-25T07:23:24.642Z,91.91
2023-03-25T07:25:51.948Z,92.86
2023-03-25T07:28:19.373Z,94.16
2023-03-25T07:30:46.764Z,95.96
2023-03-25T07:33:13.734Z,95.58
2023-03-25T07:35:40.844Z,93.07
2023-03-25T07:38:08.093Z,90.57
2023-03-25T07:40:35.078Z,89.22
2023-03-25T07:43:01.989Z,87.65
2023-03-25T07:45:29.221Z,87.70
2023-03-25T07:47:56.365Z,81.68
2023-03-25T07:50:25.257Z,82.57
2023-03-25T07:52:53.087Z,82.66
2023-03-25T07:55:20.110Z,79.15
2023-03-25T07:57:47.278Z,79.46
2023-03-25T08:00:14.975Z,79.12
2023-03-25T08:02:42.311Z,80.17
2023-03-25T08:05:09.938Z,77.02
2023-03-25T08:07:36.868Z,75.15
2023-03-25T08:10:04.363Z,74.72
2023-03-25T08:12:31.370Z,74.99
2023-03-25T08:15:00.214Z,73.01
2023-03-25T08:17:27.362Z,73.41
2023-03-25T08:19:54.373Z,76.53
2023-03-25T08:22:21.311Z,73.89
2023-03-25T08:24:48.269Z,73.83
2023-03-25T08:27:16.674Z,74.40
2023-03-25T08:29:45.114Z,75.98
2023-03-25T08:32:12.018Z,75.19
2023-03-25T08:34:40.268Z,75.44
2023-03-25T08:37:10.317Z,76.45
2023-03-25T08:39:40.193Z,76.59
2023-03-25T08:42:09.123Z,74.00
2023-03-25T08:44:36.701Z,72.82
2023-03-25T08:47:04.274Z,76.06
2023-03-25T08:49:31.356Z,75.32
2023-03-25T08:52:00.458Z,76.58
2023-03-25T08:54:29.351Z,76.33
2023-03-25T08:56:56.546Z,74.45
2023-03-25T08:59:23.619Z,74.87
2023-03-25T09:01:50.886Z,71.78
2023-03-25T09:04:17.986Z,73.25
2023-03-25T09:06:47.176Z,72.32
2023-03-25T09:09:16.886Z,68.08
2023-03-25T09:11:44.699Z,64.57
2023-03-25T09:14:11.817Z,64.58
2023-03-25T09:16:38.898Z,63.61
2023-03-25T09:19:06.052Z,64.80
2023-03-25T09:21:33.043Z,63.97
2023-03-25T09:24:00.149Z,65.50
2023-03-25T09:26:27.361Z,62.97
2023-03-25T09:28:56.550Z,63.49
2023-03-25T09:31:24.374Z,63.49
2023-03-25T09:33:51.492Z,63.13
2023-03-25T09:36:18.504Z,62.28
2023-03-25T09:38:45.953Z,61.04
2023-03-25T09:41:38.951Z,62.49
2023-03-25T09:44:15.333Z,61.98
2023-03-25T09:46:44.274Z,62.81
2023-03-25T09:49:19.938Z,61.56
2023-03-25T09:51:49.944Z,60.26
2023-03-25T09:54:16.891Z,59.95
2023-03-25T09:56:44.949Z,59.29
2023-03-25T09:59:21.614Z,61.06
2023-03-25T10:02:04.622Z,59.86
2023-03-25T10:04:53.564Z,59.22
2023-03-25T10:07:55.097Z,59.37
2023-03-25T10:10:24.853Z,59.26
2023-03-25T10:12:56.322Z,59.20
2023-03-25T10:15:41.225Z,59.53
2023-03-25T10:18:28.044Z,60.21
2023-03-25T10:21:10.862Z,61.58
2023-03-25T10:23:43.279Z,61.99
2023-03-25T10:26:21.050Z,61.14
2023-03-25T10:29:05.357Z,62.96
2023-03-25T10:31:37.977Z,61.66
2023-03-25T10:34:10.892Z,61.51
2023-03-25T10:36:45.472Z,61.04
2023-03-25T10:39:19.272Z,59.46
2023-03-25T10:42:18.555Z,61.96
2023-03-25T10:44:47.296Z,59.63
2023-03-25T10:47:19.919Z,59.08
2023-03-25T10:49:48.736Z,57.98
2023-03-25T10:52:16.691Z,57.16
2023-03-25T10:54:48.289Z,54.80
2023-03-25T10:57:28.534Z,54.46
2023-03-25T11:00:01.625Z,52.59
2023-03-25T11:02:30.924Z,52.17
2023-03-25T11:05:03.391Z,51.11
2023-03-25T11:07:33.946Z,51.61
2023-03-25T11:10:26.371Z,51.22
2023-03-25T11:12:55.111Z,49.37
2023-03-25T11:15:26.060Z,49.19
2023-03-25T11:18:13.981Z,49.31
2023-03-25T11:20:48.503Z,49.80
2023-03-25T11:23:26.628Z,48.92
2023-03-25T11:25:55.888Z,49.32
2023-03-25T11:28:38.435Z,48.49
2023-03-25T11:31:11.684Z,48.63
2023-03-25T11:33:40.063Z,48.15
2023-03-25T11:36:20.824Z,47.30
2023-03-25T11:38:53.932Z,46.72
2023-03-25T11:41:20.976Z,47.10
2023-03-25T11:43:50.063Z,46.50
2023-03-25T11:46:21.364Z,45.98
2023-03-25T11:48:50.411Z,44.60
2023-03-25T11:51:24.214Z,43.05
2023-03-25T11:54:03.362Z,42.85
2023-03-25T11:56:39.339Z,43.53
2023-03-25T11:59:30.640Z,42.88
2023-03-25T12:02:03.394Z,43.59
2023-03-25T12:04:30.892Z,42.89
2023-03-25T12:07:02.028Z,44.28
2023-03-25T12:09:32.293Z,43.95
2023-03-25T12:12:08.720Z,42.47
2023-03-25T12:14:38.750Z,41.25
2023-03-25T12:17:24.398Z,43.06
2023-03-25T12:20:13.830Z,41.92
2023-03-25T12:23:03.741Z,41.92
2023-03-25T12:25:57.049Z,41.42
2023-03-25T12:28:41.892Z,40.23
2023-03-25T12:31:24.191Z,39.73
2023-03-25T12:34:03.611Z,39.67
2023-03-25T12:37:00.047Z,39.62
2023-03-25T12:39:46.945Z,39.37
2023-03-25T12:42:53.923Z,39.15
2023-03-25T12:45:22.584Z,39.82
2023-03-25T12:47:56.477Z,40.50
2023-03-25T12:50:44.200Z,41.08
2023-03-25T12:53:41.830Z,40.45
2023-03-25T12:56:14.476Z,42.12
2023-03-25T12:58:44.261Z,41.61
2023-03-25T13:01:20.507Z,40.61
2023-03-25T13:04:12.512Z,41.66
2023-03-25T13:07:05.758Z,41.04
2023-03-25T13:09:52.512Z,42.05
2023-03-25T13:12:54.262Z,41.89
2023-03-25T13:15:26.906Z,42.38
2023-03-25T13:18:04.210Z,43.18
2023-03-25T13:20:38.063Z,43.29
2023-03-25T13:23:08.039Z,43.44
2023-03-25T13:25:57.217Z,44.92
2023-03-25T13:28:50.618Z,44.41
2023-03-25T13:31:21.390Z,44.75
2023-03-25T13:34:00.939Z,44.55
2023-03-25T13:39:16.212Z,44.49
2023-03-25T13:41:48.155Z,44.04
2023-03-25T13:44:29.303Z,44.95
2023-03-25T13:47:06.946Z,44.57
2023-03-25T13:49:44.548Z,44.56
2023-03-25T13:52:14.854Z,43.15
2023-03-25T13:55:09.941Z,42.56
2023-03-25T13:58:01.550Z,42.42
2023-03-25T14:00:55.758Z,41.92
2023-03-25T14:03:38.241Z,42.53
2023-03-25T14:06:10.775Z,42.31
2023-03-25T14:09:05.810Z,41.84
2023-03-25T14:11:50.205Z,41.89
2023-03-25T14:14:23.110Z,43.01
2023-03-25T14:16:58.446Z,42.75
2023-03-25T14:19:37.663Z,42.52
2023-03-25T14:22:16.881Z,42.88
2023-03-25T14:24:45.570Z,43.44
2023-03-25T14:27:30.045Z,45.96
2023-03-25T14:30:20.680Z,44.56
2023-03-25T14:32:47.800Z,44.95
2023-03-25T14:35:36.919Z,45.02
2023-03-25T14:38:09.647Z,43.99
2023-03-25T14:40:50.726Z,44.32
2023-03-25T14:43:33.288Z,43.86
2023-03-25T14:46:23.855Z,43.31
2023-03-25T14:49:19.009Z,44.40
2023-03-25T14:51:51.899Z,45.18
2023-03-25T14:54:27.858Z,44.55
2023-03-25T14:57:08.328Z,43.62
2023-03-25T14:59:42.500Z,43.00
2023-03-25T15:02:23.048Z,42.40
2023-03-25T15:04:54.823Z,43.40
2023-03-25T15:07:39.348Z,42.50
2023-03-25T15:10:07.574Z,42.75
2023-03-25T15:12:39.021Z,42.86
2023-03-25T15:15:27.858Z,43.57
2023-03-25T15:17:55.064Z,43.36
2023-03-25T15:20:21.984Z,43.30
2023-03-25T15:23:34.797Z,42.60
2023-03-25T15:26:03.117Z,43.49
2023-03-25T15:28:45.505Z,43.64
2023-03-25T15:31:20.469Z,44.10
2023-03-25T15:34:02.636Z,44.09
2023-03-25T15:36:48.244Z,44.31
2023-03-25T15:39:41.040Z,45.54
2023-03-25T15:42:07.966Z,46.33
2023-03-25T15:44:34.874Z,46.31
2023-03-25T15:47:20.689Z,45.20
2023-03-25T15:50:09.620Z,46.40
2023-03-25T15:53:12.876Z,45.68
2023-03-25T15:55:46.126Z,45.12
2023-03-25T15:58:26.221Z,45.40
2023-03-25T16:00:59.755Z,45.01
2023-03-25T16:03:30.505Z,45.06
2023-03-25T16:06:01.893Z,45.09
2023-03-25T16:08:33.120Z,45.87
2023-03-25T16:11:23.223Z,45.24
2023-03-25T16:14:15.040Z,45.69
2023-03-25T16:16:53.390Z,45.96
2023-03-25T16:19:23.705Z,45.51
2023-03-25T16:21:53.259Z,45.49
2023-03-25T16:24:26.554Z,45.45
2023-03-25T16:26:53.718Z,46.70
2023-03-25T16:29:26.327Z,45.58
2023-03-25T16:32:04.142Z,45.58
2023-03-25T16:34:38.044Z,45.30
2023-03-25T16:37:06.508Z,45.29
2023-03-25T16:39:36.700Z,45.25
2023-03-25T16:42:10.203Z,45.21
2023-03-25T16:44:38.230Z,45.49
2023-03-25T16:47:05.879Z,45.31
2023-03-25T16:49:40.369Z,45.48
2023-03-25T16:52:14.481Z,46.47
2023-03-25T16:57:27.706Z,46.35
2023-03-25T16:59:56.267Z,46.26
2023-03-25T17:02:26.836Z,46.66
2023-03-25T17:04:58.088Z,46.64
2023-03-25T17:07:28.322Z,47.06
2023-03-25T17:09:59.088Z,46.76
2023-03-25T17:12:28.856Z,47.48
2023-03-25T17:14:58.625Z,47.78
2023-03-25T17:17:30.546Z,48.45
2023-03-25T17:20:02.802Z,50.53
2023-03-25T17:22:39.856Z,50.70
2023-03-25T17:25:27.550Z,50.75
2023-03-25T17:28:07.141Z,51.42
2023-03-25T17:30:42.959Z,51.72
2023-03-25T17:33:14.476Z,52.77
2023-03-25T17:35:44.528Z,52.35
2023-03-25T17:38:24.281Z,52.07
2023-03-25T17:41:06.602Z,54.55
2023-03-25T17:43:41.589Z,53.43
2023-03-25T17:46:09.645Z,53.63
2023-03-25T17:48:37.011Z,53.52
2023-03-25T17:51:06.275Z,53.09
2023-03-25T17:53:33.228Z,54.54
2023-03-25T17:56:03.509Z,53.28
2023-03-25T17:58:30.878Z,53.23
2023-03-25T18:00:59.128Z,55.10
2023-03-25T18:03:28.329Z,56.96
2023-03-25T18:05:55.620Z,57.35
2023-03-25T18:08:24.432Z,58.17
2023-03-25T18:10:53.416Z,58.71
2023-03-25T18:13:22.137Z,58.31
2023-03-25T18:15:49.347Z,57.62
2023-03-25T18:18:20.642Z,58.22
2023-03-25T18:20:48.422Z,58.41
2023-03-25T18:23:15.858Z,57.25
2023-03-25T18:25:45.091Z,58.68
2023-03-25T18:28:13.583Z,57.83
2023-03-25T18:30:56.649Z,57.53
2023-03-25T18:33:24.201Z,58.94
2023-03-25T18:35:56.583Z,58.61
2023-03-25T18:38:25.460Z,61.48
2023-03-25T18:40:54.696Z,61.06
2023-03-25T18:43:22.801Z,64.85
2023-03-25T18:45:50.316Z,65.28
2023-03-25T18:48:21.183Z,65.83
2023-03-25T18:51:00.138Z,66.74
2023-03-25T18:53:29.334Z,66.13
2023-03-25T18:56:00.254Z,66.11
2023-03-25T18:58:33.193Z,68.12
2023-03-25T19:01:01.841Z,67.75
2023-03-25T19:03:40.658Z,68.25
2023-03-25T19:06:11.559Z,68.01
2023-03-25T19:08:39.315Z,69.52
2023-03-25T19:11:20.069Z,69.30
2023-03-25T19:13:49.190Z,69.40
2023-03-25T19:16:16.786Z,68.92
2023-03-25T19:18:44.017Z,70.67
2023-03-25T19:21:15.410Z,69.29
2023-03-25T19:23:43.201Z,70.06
2023-03-25T19:26:10.377Z,68.76
2023-03-25T19:28:37.389Z,68.57
2023-03-25T19:31:04.815Z,67.59
2023-03-25T19:33:32.199Z,68.09
2023-03-25T19:36:01.998Z,67.18
2023-03-25T19:38:30.282Z,66.63
2023-03-25T19:41:23.541Z,65.80
2023-03-25T19:43:50.562Z,68.53
2023-03-25T19:46:19.415Z,68.76
2023-03-25T19:48:46.763Z,66.77
2023-03-25T19:51:14.046Z,70.50
2023-03-25T19:53:40.998Z,70.58
2023-03-25T19:56:09.870Z,68.48
2023-03-25T19:58:36.804Z,73.48
2023-03-25T20:01:03.878Z,70.09
2023-03-25T20:03:32.909Z,71.55
2023-03-25T20:06:01.690Z,73.36
2023-03-25T20:08:30.232Z,80.20
2023-03-25T20:10:57.148Z,83.48
2023-03-25T20:13:24.526Z,85.09
2023-03-25T20:15:52.817Z,91.11
2023-03-25T20:18:20.728Z,87.74
2023-03-25T20:20:47.703Z,86.46
2023-03-25T20:23:14.627Z,85.04
2023-03-25T20:25:41.908Z,89.26
2023-03-25T20:28:09.131Z,96.77
2023-03-25T20:30:36.300Z,100.00
2023-03-25T20:33:03.639Z,100.00
2023-03-25T20:35:32.000Z,100.00
2023-03-25T20:37:59.318Z,100.00
2023-03-25T20:40:37.357Z,99.06
2023-03-25T20:43:09.200Z,97.97
2023-03-25T20:45:36.269Z,92.50
2023-03-25T20:48:04.132Z,91.78
2023-03-25T20:50:31.054Z,87.58
2023-03-25T20:52:57.951Z,83.15
2023-03-25T20:55:24.985Z,85.92
2023-03-25T20:57:52.169Z,83.32
2023-03-25T21:00:19.781Z,79.87
2023-03-25T21:02:48.057Z,77.21
2023-03-25T21:05:15.081Z,76.17
2023-03-25T21:07:42.159Z,75.78
2023-03-25T21:10:10.509Z,72.43
2023-03-25T21:12:43.839Z,75.48
2023-03-25T21:15:13.493Z,72.76
2023-03-25T21:17:41.149Z,72.42
2023-03-25T21:20:09.345Z,72.61
2023-03-25T21:22:43.286Z,75.31
2023-03-25T21:25:11.784Z,73.06
2023-03-25T21:27:39.853Z,69.85
2023-03-25T21:30:09.903Z,68.18
2023-03-25T21:32:37.179Z,68.46
2023-03-25T21:35:04.211Z,68.98
2023-03-25T21:37:35.871Z,68.51
2023-03-25T21:40:04.050Z,68.19
2023-03-25T21:42:31.189Z,67.27
2023-03-25T21:44:58.449Z,68.79
2023-03-25T21:47:25.630Z,68.76
2023-03-25T21:49:52.531Z,70.48
2023-03-25T21:52:19.499Z,68.24
2023-03-25T21:54:48.634Z,66.95
2023-03-25T21:57:15.618Z,66.36
2023-03-25T21:59:42.634Z,66.82
2023-03-25T22:02:14.481Z,66.22
2023-03-25T22:04:41.761Z,67.06
2023-03-25T22:07:08.870Z,74.62
2023-03-25T22:09:36.177Z,81.37
2023-03-25T22:12:03.202Z,79.89
2023-03-25T22:14:30.133Z,77.91
2023-03-25T22:16:57.109Z,77.01
2023-03-25T22:19:24.681Z,78.76
2023-03-25T22:21:51.692Z,81.03
2023-03-25T22:24:18.705Z,86.06
2023-03-25T22:26:45.636Z,84.79
2023-03-25T22:29:13.719Z,85.61
2023-03-25T22:31:41.333Z,87.73
2023-03-25T22:34:11.266Z,88.00
2023-03-25T22:36:39.811Z,96.06
2023-03-25T22:39:07.249Z,90.36
2023-03-25T22:41:34.523Z,87.95
2023-03-25T22:44:01.646Z,85.18
2023-03-25T22:46:28.703Z,84.36
2023-03-25T22:48:55.821Z,82.01
2023-03-25T22:51:22.758Z,86.19
2023-03-25T22:53:49.751Z,85.65
2023-03-25T22:56:16.740Z,86.97
2023-03-25T22:58:43.743Z,83.84
2023-03-25T23:01:25.252Z,96.69
2023-03-25T23:03:53.921Z,90.69
2023-03-25T23:06:21.717Z,88.65
2023-03-25T23:08:49.158Z,85.86
2023-03-25T23:11:21.987Z,83.66
2023-03-25T23:13:53.323Z,81.49
2023-03-25T23:16:24.334Z,80.03
2023-03-25T23:18:52.257Z,79.44
2023-03-25T23:21:22.047Z,80.62
2023-03-25T23:23:53.287Z,77.87
2023-03-25T23:26:27.665Z,77.98
2023-03-25T23:29:00.758Z,78.20
2023-03-25T23:31:34.247Z,78.50
2023-03-25T23:34:06.954Z,76.10
2023-03-25T23:36:36.673Z,74.56
2023-03-25T23:39:07.524Z,76.56
2023-03-25T23:41:35.224Z,75.65
2023-03-25T23:44:03.196Z,74.66
2023-03-25T23:46:30.370Z,74.33
2023-03-25T23:49:02.782Z,73.10
2023-03-25T23:51:36.799Z,73.10
2023-03-25T23:54:05.378Z,74.74
2023-03-25T23:56:32.590Z,75.76
2023-03-25T23:59:00.743Z,80.54
